Weather reports worldwide

Advertisment
Lorca, Spain (8426): temperature & dewpoint: 19.03.2019 18:00:00 - 25.03.2019 18:00:00 (CET)Lorca, Spain (8426): wind speed & gusts: 19.03.2019 18:00:00 - 25.03.2019 18:00:00 (CET)Lorca, Spain (8426): wind direction: 19.03.2019 18:00:00 - 25.03.2019 18:00:00 (CET)Lorca, Spain (8426): precipitation: 19.03.2019 18:00:00 - 25.03.2019 18:00:00 (CET)
Date & Time tt [°C] td [°C] ff [km/h] ff [kn] fx [km/h] fx [kn] dd rr [mm]
25.03.2019 18:00:00 - - - - - - - -
25.03.2019 17:00:00 21,0 6,8 4 2 16 8 ESE 0,0
25.03.2019 16:00:00 21,9 7,3 5 3 20 11 ENE 0,0
25.03.2019 15:00:00 21,9 7,7 4 2 17 9 E 0,0
25.03.2019 14:00:00 21,0 7,3 5 3 20 11 ENE 0,0
25.03.2019 13:00:00 19,9 6,5 8 4 22 12 E -
25.03.2019 12:00:00 19,5 7,6 4 2 18 10 ENE 0,0
25.03.2019 11:00:00 17,1 5,6 6 3 17 9 ENE 0,0
25.03.2019 10:00:00 14,2 6,1 1 1 9 5 N 0,0
25.03.2019 09:00:00 9,7 5,3 1 1 6 3 WNW 0,0
25.03.2019 08:00:00 7,2 4,3 3 1 6 4 W 0,0
25.03.2019 07:00:00 7,0 3,8 1 1 16 9 WNW -
25.03.2019 06:00:00 8,0 3,2 5 3 14 8 N 0,0
25.03.2019 05:00:00 8,6 4,5 3 2 8 4 N 0,0
25.03.2019 04:00:00 8,6 4,8 2 1 5 3 N 0,0
25.03.2019 03:00:00 9,3 4,5 2 1 16 8 NNW 0,0
25.03.2019 02:00:00 9,5 4,5 5 3 13 7 N 0,0
25.03.2019 01:00:00 10,1 4,5 5 3 12 6 N -
25.03.2019 00:00:00 10,9 4,6 5 3 11 6 N 0,0
24.03.2019 23:00:00 11,7 4,5 4 2 9 5 NNE 0,0
24.03.2019 22:00:00 12,3 4,5 3 1 6 4 NE 0,0
24.03.2019 21:00:00 13,1 5,0 3 2 8 4 NNE 0,0
24.03.2019 20:00:00 13,9 5,0 3 2 9 5 NNE 0,0
24.03.2019 19:00:00 15,6 6,1 3 2 6 3 N -
24.03.2019 18:00:00 16,5 5,8 1 1 10 5 NNE 0,0
24.03.2019 17:00:00 16,9 5,8 5 3 17 9 ENE 0,0
24.03.2019 16:00:00 17,8 6,4 4 2 19 11 E 0,0
24.03.2019 15:00:00 18,4 7,1 5 3 19 11 E 0,0
24.03.2019 14:00:00 18,2 7,6 8 5 29 15 ENE 0,0
24.03.2019 13:00:00 17,9 8,1 6 4 20 11 ENE -
24.03.2019 12:00:00 15,5 7,7 7 4 19 10 ENE 0,0
24.03.2019 11:00:00 13,5 7,7 7 4 14 8 NE 0,0
24.03.2019 10:00:00 11,8 7,8 5 3 11 6 NNE 0,0
24.03.2019 09:00:00 7,2 5,9 0 0 10 5 NNE 0,0
24.03.2019 08:00:00 7,1 5,3 4 2 15 8 N 0,0
24.03.2019 07:00:00 5,5 4,5 1 0 11 6 WNW -
24.03.2019 06:00:00 5,4 4,6 2 1 7 4 WSW 0,0
24.03.2019 05:00:00 6,6 5,1 3 2 10 5 N 0,0
24.03.2019 04:00:00 6,8 5,5 6 3 11 6 N 0,0
24.03.2019 03:00:00 7,2 5,8 5 3 10 5 N 0,0
24.03.2019 02:00:00 7,3 5,9 4 2 12 7 N 0,0
24.03.2019 01:00:00 7,6 6,7 3 2 7 4 N -
24.03.2019 00:00:00 8,6 7,7 3 2 10 5 NNE 0,0
23.03.2019 23:00:00 9,6 8,8 3 2 10 5 NNE 0,1
23.03.2019 22:00:00 10,6 9,2 5 3 10 5 NNE 0,0
23.03.2019 21:00:00 10,7 8,4 3 1 6 4 NNE 0,0
23.03.2019 20:00:00 11,0 8,4 2 1 5 3 NNE 0,0
23.03.2019 19:00:00 11,7 8,8 2 1 9 5 N -
23.03.2019 18:00:00 12,1 8,8 3 2 10 5 N 0,0
23.03.2019 17:00:00 11,8 9,0 3 2 12 6 NNE 0,0
23.03.2019 16:00:00 11,0 9,0 4 2 14 7 NNW 0,6
23.03.2019 15:00:00 10,8 8,9 5 3 17 9 NNW 0,5
23.03.2019 14:00:00 10,2 8,8 5 3 13 7 NNW 2,2
23.03.2019 13:00:00 9,8 8,9 1 1 6 3 ENE -
23.03.2019 12:00:00 9,5 8,5 4 2 16 9 NE 2,7
23.03.2019 11:00:00 10,9 7,0 7 4 19 10 ENE 0,0
23.03.2019 10:00:00 12,7 5,3 6 3 12 6 NE 0,0
23.03.2019 09:00:00 12,5 5,0 4 2 13 7 N 0,0
23.03.2019 08:00:00 10,6 4,6 4 2 7 4 NE 0,0
23.03.2019 07:00:00 10,2 4,5 3 1 6 3 NNE -
23.03.2019 06:00:00 10,8 5,0 3 2 8 4 N 0,0
23.03.2019 05:00:00 9,9 5,3 0 0 3 2 NE 0,0
23.03.2019 04:00:00 10,5 5,5 1 1 6 4 W 0,0
23.03.2019 03:00:00 11,2 5,5 2 1 17 9 N 0,0
23.03.2019 02:00:00 11,0 4,8 4 2 17 9 NNE 0,0
23.03.2019 01:00:00 11,5 5,3 4 2 12 7 NNW -
23.03.2019 00:00:00 11,4 5,8 3 2 8 4 N 0,0
22.03.2019 23:00:00 10,5 5,5 0 0 4 2 N 0,0
22.03.2019 22:00:00 12,2 6,1 0 0 6 3 W 0,0
22.03.2019 21:00:00 13,3 5,6 4 2 8 5 NE 0,0
22.03.2019 20:00:00 13,5 5,5 0 0 7 4 E 0,0
22.03.2019 19:00:00 15,3 5,8 4 2 12 6 NE -
22.03.2019 18:00:00 16,6 5,5 3 2 14 7 E 0,0
22.03.2019 17:00:00 19,0 6,8 4 2 17 9 E 0,0
22.03.2019 16:00:00 18,6 5,8 4 2 19 11 E 0,0
22.03.2019 15:00:00 19,1 6,2 4 2 19 10 E 0,0
22.03.2019 14:00:00 17,4 5,6 3 2 15 8 E 0,0
22.03.2019 13:00:00 16,6 5,5 3 2 26 14 E -
22.03.2019 12:00:00 14,1 4,1 3 1 10 6 ENE 0,0
22.03.2019 11:00:00 13,6 4,5 1 1 13 7 NE 0,0
22.03.2019 10:00:00 10,8 3,8 3 2 16 9 N 0,0
22.03.2019 09:00:00 9,1 3,2 6 4 17 9 NNW 0,0
22.03.2019 08:00:00 4,5 0,9 3 1 6 3 S 0,0
22.03.2019 07:00:00 4,6 0,6 1 1 14 8 SSE -
22.03.2019 06:00:00 6,7 1,9 5 3 16 9 NNW 0,0
22.03.2019 05:00:00 7,3 2,3 9 5 22 12 NNW 0,0
22.03.2019 04:00:00 7,8 2,3 11 6 24 13 NNW 0,0
22.03.2019 03:00:00 7,5 1,7 6 4 19 10 NNW 0,0
22.03.2019 02:00:00 7,1 2,3 4 2 13 7 N 0,0
22.03.2019 01:00:00 7,3 3,8 4 2 12 7 NNW -
22.03.2019 00:00:00 7,7 4,1 4 2 8 5 N 0,0
21.03.2019 23:00:00 8,5 4,5 2 1 8 4 NE 0,0
21.03.2019 22:00:00 8,8 4,8 2 1 9 5 NNE 0,0
21.03.2019 21:00:00 9,6 4,8 4 2 13 7 ENE 0,0
21.03.2019 20:00:00 10,9 5,0 5 3 14 8 ENE 0,0
21.03.2019 19:00:00 13,3 4,1 3 2 16 9 E -
21.03.2019 18:00:00 15,5 3,9 3 2 16 9 E 0,0
21.03.2019 17:00:00 16,4 3,0 5 3 29 16 E 0,0
21.03.2019 16:00:00 16,8 3,4 4 2 21 11 ENE 0,0
21.03.2019 15:00:00 16,0 3,4 7 4 28 15 ENE 0,0
21.03.2019 14:00:00 15,4 3,6 8 5 26 14 ENE 0,0
21.03.2019 13:00:00 14,7 3,2 12 6 31 17 ENE -
21.03.2019 12:00:00 15,0 4,3 7 4 26 14 ENE 0,0
21.03.2019 11:00:00 12,8 3,4 11 6 24 13 NE 0,0
21.03.2019 10:00:00 11,3 4,1 6 3 21 12 N 0,0
21.03.2019 09:00:00 7,9 3,0 9 5 24 13 NNW 0,0
21.03.2019 08:00:00 6,5 2,1 10 5 22 12 NNW 0,0
21.03.2019 07:00:00 6,0 1,7 6 3 20 11 N -
21.03.2019 06:00:00 6,1 2,3 6 4 17 9 NNW 0,0
21.03.2019 05:00:00 6,3 2,5 9 5 19 10 NNW 0,0
21.03.2019 04:00:00 5,7 2,9 5 3 16 9 NNW 0,0
21.03.2019 03:00:00 5,1 2,7 5 3 11 6 N 0,0
21.03.2019 02:00:00 5,6 2,9 4 2 9 5 N 0,0
21.03.2019 01:00:00 7,1 3,8 4 2 11 6 NNW -
21.03.2019 00:00:00 6,9 3,6 4 2 9 5 N 0,0
20.03.2019 23:00:00 7,8 4,1 3 2 8 5 N 0,0
20.03.2019 22:00:00 8,2 4,5 1 0 6 3 ENE 0,0
20.03.2019 21:00:00 8,4 4,6 4 2 10 5 NE 0,0
20.03.2019 20:00:00 9,5 4,3 3 1 14 7 NE 0,0
20.03.2019 19:00:00 10,7 4,6 4 2 16 8 E -
20.03.2019 18:00:00 12,9 5,6 6 3 27 15 ENE 0,0
20.03.2019 17:00:00 14,9 5,1 5 3 26 14 ENE 0,0
20.03.2019 16:00:00 15,3 5,5 7 4 24 13 ENE 0,0
20.03.2019 15:00:00 14,9 5,6 7 4 19 11 E 0,0
20.03.2019 14:00:00 14,1 5,5 6 3 23 12 ENE 0,0
20.03.2019 13:00:00 14,5 6,1 5 3 21 11 E -
20.03.2019 12:00:00 14,8 5,6 5 3 19 10 E 0,0
20.03.2019 11:00:00 13,3 5,9 2 1 15 8 E 0,0
20.03.2019 10:00:00 10,7 5,5 3 2 14 8 ENE 0,0
20.03.2019 09:00:00 8,7 5,0 4 2 11 6 N 0,0
20.03.2019 08:00:00 6,3 3,9 0 0 9 5 SSW 0,0
20.03.2019 07:00:00 5,9 3,4 4 2 8 4 NNE -
20.03.2019 06:00:00 6,7 3,9 3 2 6 3 NNE 0,0
20.03.2019 05:00:00 7,5 4,6 3 1 6 3 NE 0,0
20.03.2019 04:00:00 8,3 4,8 2 1 10 6 NE 0,0
20.03.2019 03:00:00 8,8 5,3 4 2 8 4 NNE 0,0
20.03.2019 02:00:00 9,0 5,6 3 1 6 3 N 0,0
20.03.2019 01:00:00 8,9 5,6 0 0 3 2 NNW -
20.03.2019 00:00:00 9,2 5,6 0 0 3 1 SE 0,0
19.03.2019 23:00:00 9,8 6,1 1 0 6 3 NNE 0,0
19.03.2019 22:00:00 10,0 6,4 4 2 7 4 NE 0,0
19.03.2019 21:00:00 9,8 6,1 2 1 6 3 NE 0,0
19.03.2019 20:00:00 9,9 6,2 1 1 8 5 ENE 0,0
19.03.2019 19:00:00 11,3 7,3 3 2 16 9 E -
19.03.2019 18:00:00 13,1 7,1 5 3 24 13 ENE 0,0

tt = temperature
td = dewpoint
ff = wind speed
fx = gusts
dd = wind direction
rr = precipitation

Next stations